sensor_id;sensor_type;location;lat;lon;timestamp;P1;durP1;ratioP1;P2;durP2;ratioP2
66741;SDS011;53654;54.152;19.432;2022-08-01T00:01:57;4.20;;;3.70;;
66741;SDS011;53654;54.152;19.432;2022-08-01T00:04:25;4.00;;;3.60;;
66741;SDS011;53654;54.152;19.432;2022-08-01T00:06:53;4.00;;;3.30;;
66741;SDS011;53654;54.152;19.432;2022-08-01T00:09:21;4.00;;;3.20;;
66741;SDS011;53654;54.152;19.432;2022-08-01T00:11:50;3.30;;;3.00;;
66741;SDS011;53654;54.152;19.432;2022-08-01T00:14:26;3.60;;;2.80;;
66741;SDS011;53654;54.152;19.432;2022-08-01T00:16:59;4.60;;;2.80;;
66741;SDS011;53654;54.152;19.432;2022-08-01T00:19:33;4.80;;;2.80;;
66741;SDS011;53654;54.152;19.432;2022-08-01T00:22:02;2.60;;;2.30;;
66741;SDS011;53654;54.152;19.432;2022-08-01T00:24:30;3.10;;;2.90;;
66741;SDS011;53654;54.152;19.432;2022-08-01T00:26:58;2.30;;;2.10;;
66741;SDS011;53654;54.152;19.432;2022-08-01T00:29:26;2.60;;;2.40;;
66741;SDS011;53654;54.152;19.432;2022-08-01T00:32:14;2.80;;;2.50;;
66741;SDS011;53654;54.152;19.432;2022-08-01T00:34:42;3.20;;;2.90;;
66741;SDS011;53654;54.152;19.432;2022-08-01T00:37:11;4.80;;;3.10;;
66741;SDS011;53654;54.152;19.432;2022-08-01T00:39:42;4.20;;;3.00;;
66741;SDS011;53654;54.152;19.432;2022-08-01T00:42:10;3.20;;;2.70;;
66741;SDS011;53654;54.152;19.432;2022-08-01T00:44:39;5.60;;;3.20;;
66741;SDS011;53654;54.152;19.432;2022-08-01T00:47:08;5.80;;;3.80;;
66741;SDS011;53654;54.152;19.432;2022-08-01T00:49:36;4.90;;;3.20;;
66741;SDS011;53654;54.152;19.432;2022-08-01T00:52:04;7.20;;;3.90;;
66741;SDS011;53654;54.152;19.432;2022-08-01T00:54:34;6.90;;;4.40;;
66741;SDS011;53654;54.152;19.432;2022-08-01T00:57:03;6.50;;;4.60;;
66741;SDS011;53654;54.152;19.432;2022-08-01T00:59:36;4.70;;;4.00;;
66741;SDS011;53654;54.152;19.432;2022-08-01T01:02:07;5.50;;;4.20;;
66741;SDS011;53654;54.152;19.432;2022-08-01T01:04:42;6.30;;;4.70;;
66741;SDS011;53654;54.152;19.432;2022-08-01T01:09:52;10.70;;;7.00;;
66741;SDS011;53654;54.152;19.432;2022-08-01T01:12:36;10.40;;;6.00;;
66741;SDS011;53654;54.152;19.432;2022-08-01T01:15:23;14.60;;;7.80;;
66741;SDS011;53654;54.152;19.432;2022-08-01T01:18:09;14.60;;;8.50;;
66741;SDS011;53654;54.152;19.432;2022-08-01T01:20:43;13.60;;;8.20;;
66741;SDS011;53654;54.152;19.432;2022-08-01T01:31:57;28.30;;;10.80;;
66741;SDS011;53654;54.152;19.432;2022-08-01T01:34:31;30.00;;;10.10;;
66741;SDS011;53654;54.152;19.432;2022-08-01T01:37:07;30.90;;;11.10;;
66741;SDS011;53654;54.152;19.432;2022-08-01T01:39:40;22.50;;;12.10;;
66741;SDS011;53654;54.152;19.432;2022-08-01T01:42:20;24.30;;;12.20;;
66741;SDS011;53654;54.152;19.432;2022-08-01T01:44:51;20.70;;;11.30;;
66741;SDS011;53654;54.152;19.432;2022-08-01T01:47:22;22.20;;;11.50;;
66741;SDS011;53654;54.152;19.432;2022-08-01T01:49:52;18.30;;;11.10;;
66741;SDS011;53654;54.152;19.432;2022-08-01T01:52:23;22.10;;;11.10;;
66741;SDS011;53654;54.152;19.432;2022-08-01T01:54:52;19.40;;;12.40;;
66741;SDS011;53654;54.152;19.432;2022-08-01T01:57:22;17.90;;;11.40;;
66741;SDS011;53654;54.152;19.432;2022-08-01T01:59:52;23.40;;;12.20;;
66741;SDS011;53654;54.152;19.432;2022-08-01T02:02:23;15.50;;;11.70;;
66741;SDS011;53654;54.152;19.432;2022-08-01T02:04:52;16.40;;;11.80;;
66741;SDS011;53654;54.152;19.432;2022-08-01T02:07:22;13.30;;;11.10;;
66741;SDS011;53654;54.152;19.432;2022-08-01T02:09:52;16.10;;;11.60;;
66741;SDS011;53654;54.152;19.432;2022-08-01T02:12:22;15.40;;;11.80;;
66741;SDS011;53654;54.152;19.432;2022-08-01T02:14:52;13.00;;;11.80;;
66741;SDS011;53654;54.152;19.432;2022-08-01T02:17:21;13.20;;;11.90;;
66741;SDS011;53654;54.152;19.432;2022-08-01T02:19:52;15.00;;;13.50;;
66741;SDS011;53654;54.152;19.432;2022-08-01T02:22:29;13.60;;;12.20;;
66741;SDS011;53654;54.152;19.432;2022-08-01T02:25:06;14.60;;;13.30;;
66741;SDS011;53654;54.152;19.432;2022-08-01T02:27:52;13.30;;;11.90;;
66741;SDS011;53654;54.152;19.432;2022-08-01T02:30:30;14.50;;;13.10;;
66741;SDS011;53654;54.152;19.432;2022-08-01T02:33:04;14.80;;;13.40;;
66741;SDS011;53654;54.152;19.432;2022-08-01T02:35:43;14.00;;;12.60;;
66741;SDS011;53654;54.152;19.432;2022-08-01T02:38:35;14.90;;;13.50;;
66741;SDS011;53654;54.152;19.432;2022-08-01T02:41:11;15.20;;;13.60;;
66741;SDS011;53654;54.152;19.432;2022-08-01T02:43:46;15.90;;;14.20;;
66741;SDS011;53654;54.152;19.432;2022-08-01T02:46:29;18.30;;;15.50;;
66741;SDS011;53654;54.152;19.432;2022-08-01T02:49:06;17.30;;;15.50;;
66741;SDS011;53654;54.152;19.432;2022-08-01T02:51:36;16.40;;;14.40;;
66741;SDS011;53654;54.152;19.432;2022-08-01T02:54:08;17.70;;;14.60;;
66741;SDS011;53654;54.152;19.432;2022-08-01T02:56:38;20.30;;;15.60;;
66741;SDS011;53654;54.152;19.432;2022-08-01T02:59:10;17.40;;;15.60;;
66741;SDS011;53654;54.152;19.432;2022-08-01T03:01:46;16.80;;;15.00;;
66741;SDS011;53654;54.152;19.432;2022-08-01T03:04:16;18.30;;;16.40;;
66741;SDS011;53654;54.152;19.432;2022-08-01T03:06:47;18.80;;;16.20;;
66741;SDS011;53654;54.152;19.432;2022-08-01T03:09:16;18.80;;;15.80;;
66741;SDS011;53654;54.152;19.432;2022-08-01T03:11:45;18.40;;;16.40;;
66741;SDS011;53654;54.152;19.432;2022-08-01T03:14:15;17.50;;;15.60;;
66741;SDS011;53654;54.152;19.432;2022-08-01T03:16:45;18.90;;;16.30;;
66741;SDS011;53654;54.152;19.432;2022-08-01T03:19:15;16.90;;;14.80;;
66741;SDS011;53654;54.152;19.432;2022-08-01T03:21:45;14.80;;;13.40;;
66741;SDS011;53654;54.152;19.432;2022-08-01T03:24:16;13.90;;;10.80;;
66741;SDS011;53654;54.152;19.432;2022-08-01T03:26:46;10.90;;;9.90;;
66741;SDS011;53654;54.152;19.432;2022-08-01T03:29:17;12.20;;;10.20;;
66741;SDS011;53654;54.152;19.432;2022-08-01T03:31:49;12.60;;;10.00;;
66741;SDS011;53654;54.152;19.432;2022-08-01T03:34:18;10.40;;;9.10;;
66741;SDS011;53654;54.152;19.432;2022-08-01T03:36:50;11.00;;;9.80;;
66741;SDS011;53654;54.152;19.432;2022-08-01T03:39:28;11.80;;;9.50;;
66741;SDS011;53654;54.152;19.432;2022-08-01T03:42:08;10.50;;;9.30;;
66741;SDS011;53654;54.152;19.432;2022-08-01T03:44:42;12.30;;;9.90;;
66741;SDS011;53654;54.152;19.432;2022-08-01T03:47:22;12.10;;;9.60;;
66741;SDS011;53654;54.152;19.432;2022-08-01T03:49:53;11.40;;;9.60;;
66741;SDS011;53654;54.152;19.432;2022-08-01T03:52:24;10.80;;;9.70;;
66741;SDS011;53654;54.152;19.432;2022-08-01T03:54:56;11.80;;;10.60;;
66741;SDS011;53654;54.152;19.432;2022-08-01T03:57:27;9.60;;;8.80;;
66741;SDS011;53654;54.152;19.432;2022-08-01T04:00:06;9.10;;;8.30;;
66741;SDS011;53654;54.152;19.432;2022-08-01T04:02:39;9.10;;;8.10;;
66741;SDS011;53654;54.152;19.432;2022-08-01T04:05:08;9.70;;;7.90;;
66741;SDS011;53654;54.152;19.432;2022-08-01T04:07:37;12.00;;;7.80;;
66741;SDS011;53654;54.152;19.432;2022-08-01T04:10:06;8.90;;;7.20;;
66741;SDS011;53654;54.152;19.432;2022-08-01T04:12:35;8.10;;;7.10;;
66741;SDS011;53654;54.152;19.432;2022-08-01T04:15:04;10.40;;;6.90;;
66741;SDS011;53654;54.152;19.432;2022-08-01T04:17:32;8.40;;;6.50;;
66741;SDS011;53654;54.152;19.432;2022-08-01T04:20:01;7.80;;;7.00;;
66741;SDS011;53654;54.152;19.432;2022-08-01T04:22:29;9.30;;;6.60;;
66741;SDS011;53654;54.152;19.432;2022-08-01T04:25:05;9.10;;;6.70;;
66741;SDS011;53654;54.152;19.432;2022-08-01T04:27:38;11.30;;;7.10;;
66741;SDS011;53654;54.152;19.432;2022-08-01T04:30:20;6.60;;;5.80;;
66741;SDS011;53654;54.152;19.432;2022-08-01T04:32:52;9.80;;;6.70;;
66741;SDS011;53654;54.152;19.432;2022-08-01T04:35:23;11.00;;;7.00;;
66741;SDS011;53654;54.152;19.432;2022-08-01T04:38:14;9.30;;;7.00;;
66741;SDS011;53654;54.152;19.432;2022-08-01T04:40:50;10.60;;;7.20;;
66741;SDS011;53654;54.152;19.432;2022-08-01T04:43:20;7.80;;;7.00;;
66741;SDS011;53654;54.152;19.432;2022-08-01T04:45:49;8.80;;;7.00;;
66741;SDS011;53654;54.152;19.432;2022-08-01T04:48:19;7.90;;;6.70;;
66741;SDS011;53654;54.152;19.432;2022-08-01T04:50:49;10.00;;;6.90;;
66741;SDS011;53654;54.152;19.432;2022-08-01T04:53:19;9.20;;;6.80;;
66741;SDS011;53654;54.152;19.432;2022-08-01T04:55:51;10.50;;;6.90;;
66741;SDS011;53654;54.152;19.432;2022-08-01T04:58:19;11.10;;;7.50;;
66741;SDS011;53654;54.152;19.432;2022-08-01T05:00:47;8.30;;;6.90;;
66741;SDS011;53654;54.152;19.432;2022-08-01T05:03:15;8.80;;;7.90;;
66741;SDS011;53654;54.152;19.432;2022-08-01T05:05:43;9.70;;;7.40;;
66741;SDS011;53654;54.152;19.432;2022-08-01T05:08:11;8.90;;;6.70;;
66741;SDS011;53654;54.152;19.432;2022-08-01T05:10:39;11.00;;;6.60;;
66741;SDS011;53654;54.152;19.432;2022-08-01T05:13:08;9.30;;;6.70;;
66741;SDS011;53654;54.152;19.432;2022-08-01T05:15:36;8.80;;;6.40;;
66741;SDS011;53654;54.152;19.432;2022-08-01T05:18:04;8.50;;;7.30;;
66741;SDS011;53654;54.152;19.432;2022-08-01T05:20:35;9.80;;;6.60;;
66741;SDS011;53654;54.152;19.432;2022-08-01T05:23:04;7.40;;;6.00;;
66741;SDS011;53654;54.152;19.432;2022-08-01T05:25:51;9.10;;;5.70;;
66741;SDS011;53654;54.152;19.432;2022-08-01T05:28:24;7.50;;;5.80;;
66741;SDS011;53654;54.152;19.432;2022-08-01T05:30:52;9.50;;;5.80;;
66741;SDS011;53654;54.152;19.432;2022-08-01T05:33:22;6.80;;;5.90;;
66741;SDS011;53654;54.152;19.432;2022-08-01T05:35:50;8.10;;;5.60;;
66741;SDS011;53654;54.152;19.432;2022-08-01T05:38:19;7.90;;;5.70;;
66741;SDS011;53654;54.152;19.432;2022-08-01T05:40:47;11.40;;;6.10;;
66741;SDS011;53654;54.152;19.432;2022-08-01T05:43:15;9.60;;;5.60;;
66741;SDS011;53654;54.152;19.432;2022-08-01T05:45:43;7.50;;;5.20;;
66741;SDS011;53654;54.152;19.432;2022-08-01T05:48:12;7.20;;;5.90;;
66741;SDS011;53654;54.152;19.432;2022-08-01T05:50:40;7.40;;;5.30;;
66741;SDS011;53654;54.152;19.432;2022-08-01T05:53:08;7.80;;;5.30;;
66741;SDS011;53654;54.152;19.432;2022-08-01T05:55:36;6.10;;;4.70;;
66741;SDS011;53654;54.152;19.432;2022-08-01T05:58:04;7.00;;;4.90;;
66741;SDS011;53654;54.152;19.432;2022-08-01T06:00:33;9.80;;;5.00;;
66741;SDS011;53654;54.152;19.432;2022-08-01T06:03:01;13.60;;;5.00;;
66741;SDS011;53654;54.152;19.432;2022-08-01T06:05:29;10.80;;;5.00;;
66741;SDS011;53654;54.152;19.432;2022-08-01T06:07:57;10.80;;;4.50;;
66741;SDS011;53654;54.152;19.432;2022-08-01T06:10:25;10.10;;;5.00;;
66741;SDS011;53654;54.152;19.432;2022-08-01T06:12:54;9.00;;;4.70;;
66741;SDS011;53654;54.152;19.432;2022-08-01T06:15:22;6.60;;;4.10;;
66741;SDS011;53654;54.152;19.432;2022-08-01T06:17:50;6.70;;;4.30;;
66741;SDS011;53654;54.152;19.432;2022-08-01T06:20:18;7.20;;;3.90;;
66741;SDS011;53654;54.152;19.432;2022-08-01T06:22:46;8.40;;;3.70;;
66741;SDS011;53654;54.152;19.432;2022-08-01T06:25:19;9.40;;;4.00;;
66741;SDS011;53654;54.152;19.432;2022-08-01T06:27:48;7.20;;;4.00;;
66741;SDS011;53654;54.152;19.432;2022-08-01T06:30:17;6.00;;;3.50;;
66741;SDS011;53654;54.152;19.432;2022-08-01T06:32:46;4.40;;;3.00;;
66741;SDS011;53654;54.152;19.432;2022-08-01T06:35:15;5.60;;;3.20;;
66741;SDS011;53654;54.152;19.432;2022-08-01T06:37:43;4.80;;;2.60;;
66741;SDS011;53654;54.152;19.432;2022-08-01T06:40:15;4.60;;;2.80;;
66741;SDS011;53654;54.152;19.432;2022-08-01T06:42:44;2.90;;;2.40;;
66741;SDS011;53654;54.152;19.432;2022-08-01T06:45:13;6.50;;;2.40;;
66741;SDS011;53654;54.152;19.432;2022-08-01T06:47:43;3.10;;;2.10;;
66741;SDS011;53654;54.152;19.432;2022-08-01T06:50:17;3.30;;;2.40;;
66741;SDS011;53654;54.152;19.432;2022-08-01T06:52:45;4.20;;;2.10;;
66741;SDS011;53654;54.152;19.432;2022-08-01T06:55:14;3.90;;;2.10;;
66741;SDS011;53654;54.152;19.432;2022-08-01T06:57:49;7.50;;;2.00;;
66741;SDS011;53654;54.152;19.432;2022-08-01T07:00:19;4.00;;;1.90;;
66741;SDS011;53654;54.152;19.432;2022-08-01T07:02:50;1.60;;;1.40;;
66741;SDS011;53654;54.152;19.432;2022-08-01T07:05:20;1.40;;;1.20;;
66741;SDS011;53654;54.152;19.432;2022-08-01T07:07:49;3.90;;;1.30;;
66741;SDS011;53654;54.152;19.432;2022-08-01T07:10:17;1.80;;;1.00;;
66741;SDS011;53654;54.152;19.432;2022-08-01T07:12:46;2.80;;;1.60;;
66741;SDS011;53654;54.152;19.432;2022-08-01T07:15:14;2.20;;;1.40;;
66741;SDS011;53654;54.152;19.432;2022-08-01T07:17:43;1.00;;;1.00;;
66741;SDS011;53654;54.152;19.432;2022-08-01T07:20:12;1.70;;;1.20;;
66741;SDS011;53654;54.152;19.432;2022-08-01T07:22:43;1.30;;;0.90;;
66741;SDS011;53654;54.152;19.432;2022-08-01T07:25:14;1.20;;;1.10;;
66741;SDS011;53654;54.152;19.432;2022-08-01T07:27:43;1.40;;;1.20;;
66741;SDS011;53654;54.152;19.432;2022-08-01T07:30:12;1.70;;;1.20;;
66741;SDS011;53654;54.152;19.432;2022-08-01T07:32:40;2.50;;;1.50;;
66741;SDS011;53654;54.152;19.432;2022-08-01T07:35:09;3.30;;;1.30;;
66741;SDS011;53654;54.152;19.432;2022-08-01T07:37:37;3.30;;;1.90;;
66741;SDS011;53654;54.152;19.432;2022-08-01T07:40:16;2.10;;;1.40;;
66741;SDS011;53654;54.152;19.432;2022-08-01T07:42:46;2.70;;;1.60;;
66741;SDS011;53654;54.152;19.432;2022-08-01T07:45:14;5.10;;;1.60;;
66741;SDS011;53654;54.152;19.432;2022-08-01T07:47:43;1.60;;;1.40;;
66741;SDS011;53654;54.152;19.432;2022-08-01T07:50:11;1.50;;;1.40;;
66741;SDS011;53654;54.152;19.432;2022-08-01T07:52:40;0.90;;;0.90;;
66741;SDS011;53654;54.152;19.432;2022-08-01T07:55:09;1.60;;;1.20;;
66741;SDS011;53654;54.152;19.432;2022-08-01T07:57:43;1.50;;;1.40;;
66741;SDS011;53654;54.152;19.432;2022-08-01T08:00:11;2.60;;;1.10;;
66741;SDS011;53654;54.152;19.432;2022-08-01T08:02:41;4.10;;;1.20;;
66741;SDS011;53654;54.152;19.432;2022-08-01T08:05:10;3.70;;;1.00;;
66741;SDS011;53654;54.152;19.432;2022-08-01T08:07:39;3.30;;;1.10;;
66741;SDS011;53654;54.152;19.432;2022-08-01T08:10:08;1.40;;;1.10;;
66741;SDS011;53654;54.152;19.432;2022-08-01T08:12:37;2.30;;;1.20;;
66741;SDS011;53654;54.152;19.432;2022-08-01T08:15:05;5.20;;;1.40;;
66741;SDS011;53654;54.152;19.432;2022-08-01T08:17:33;1.40;;;1.20;;
66741;SDS011;53654;54.152;19.432;2022-08-01T08:20:04;2.00;;;1.50;;
66741;SDS011;53654;54.152;19.432;2022-08-01T08:22:36;1.90;;;1.20;;
66741;SDS011;53654;54.152;19.432;2022-08-01T08:25:05;1.70;;;1.00;;
66741;SDS011;53654;54.152;19.432;2022-08-01T08:27:35;5.60;;;1.30;;
66741;SDS011;53654;54.152;19.432;2022-08-01T08:30:04;2.40;;;1.20;;
66741;SDS011;53654;54.152;19.432;2022-08-01T08:32:38;4.60;;;1.30;;
66741;SDS011;53654;54.152;19.432;2022-08-01T08:35:07;5.40;;;1.30;;
66741;SDS011;53654;54.152;19.432;2022-08-01T08:37:38;2.70;;;1.40;;
66741;SDS011;53654;54.152;19.432;2022-08-01T08:40:14;1.40;;;1.10;;
66741;SDS011;53654;54.152;19.432;2022-08-01T08:42:43;2.20;;;1.20;;
66741;SDS011;53654;54.152;19.432;2022-08-01T08:45:13;1.70;;;1.20;;
66741;SDS011;53654;54.152;19.432;2022-08-01T08:47:42;2.90;;;1.30;;
66741;SDS011;53654;54.152;19.432;2022-08-01T08:50:11;1.30;;;1.20;;
66741;SDS011;53654;54.152;19.432;2022-08-01T08:52:39;2.20;;;1.20;;
66741;SDS011;53654;54.152;19.432;2022-08-01T08:55:08;1.30;;;1.20;;
66741;SDS011;53654;54.152;19.432;2022-08-01T08:57:39;1.30;;;1.10;;
66741;SDS011;53654;54.152;19.432;2022-08-01T09:00:08;2.70;;;1.10;;
66741;SDS011;53654;54.152;19.432;2022-08-01T09:02:41;1.10;;;1.10;;
66741;SDS011;53654;54.152;19.432;2022-08-01T09:05:11;1.80;;;1.10;;
66741;SDS011;53654;54.152;19.432;2022-08-01T09:07:45;2.10;;;1.20;;
66741;SDS011;53654;54.152;19.432;2022-08-01T09:10:14;3.30;;;1.10;;
66741;SDS011;53654;54.152;19.432;2022-08-01T09:13:01;2.80;;;1.10;;
66741;SDS011;53654;54.152;19.432;2022-08-01T09:23:37;1.30;;;1.20;;
66741;SDS011;53654;54.152;19.432;2022-08-01T09:26:28;1.10;;;1.00;;
66741;SDS011;53654;54.152;19.432;2022-08-01T09:28:58;1.60;;;1.40;;
66741;SDS011;53654;54.152;19.432;2022-08-01T09:31:41;1.40;;;1.20;;
66741;SDS011;53654;54.152;19.432;2022-08-01T09:34:15;2.80;;;1.20;;
66741;SDS011;53654;54.152;19.432;2022-08-01T09:36:52;1.30;;;1.20;;
66741;SDS011;53654;54.152;19.432;2022-08-01T09:39:25;1.30;;;1.20;;
66741;SDS011;53654;54.152;19.432;2022-08-01T09:41:54;1.60;;;1.10;;
66741;SDS011;53654;54.152;19.432;2022-08-01T09:44:42;1.30;;;1.10;;
66741;SDS011;53654;54.152;19.432;2022-08-01T09:47:22;1.60;;;1.30;;
66741;SDS011;53654;54.152;19.432;2022-08-01T09:50:05;1.40;;;1.10;;
66741;SDS011;53654;54.152;19.432;2022-08-01T09:52:38;1.60;;;1.00;;
66741;SDS011;53654;54.152;19.432;2022-08-01T09:55:08;1.10;;;1.10;;
66741;SDS011;53654;54.152;19.432;2022-08-01T09:57:37;2.80;;;1.10;;
66741;SDS011;53654;54.152;19.432;2022-08-01T10:00:16;3.80;;;1.30;;
66741;SDS011;53654;54.152;19.432;2022-08-01T10:03:19;1.50;;;1.40;;
66741;SDS011;53654;54.152;19.432;2022-08-01T10:05:51;0.90;;;0.90;;
66741;SDS011;53654;54.152;19.432;2022-08-01T10:08:26;4.50;;;2.30;;
66741;SDS011;53654;54.152;19.432;2022-08-01T10:11:09;1.40;;;1.30;;
66741;SDS011;53654;54.152;19.432;2022-08-01T10:13:43;5.70;;;1.80;;
66741;SDS011;53654;54.152;19.432;2022-08-01T10:16:11;2.20;;;1.60;;
66741;SDS011;53654;54.152;19.432;2022-08-01T10:18:42;3.10;;;1.40;;
66741;SDS011;53654;54.152;19.432;2022-08-01T10:21:13;3.00;;;1.40;;
66741;SDS011;53654;54.152;19.432;2022-08-01T10:24:02;2.80;;;1.90;;
66741;SDS011;53654;54.152;19.432;2022-08-01T10:26:33;2.00;;;1.60;;
66741;SDS011;53654;54.152;19.432;2022-08-01T10:29:06;3.40;;;1.30;;
66741;SDS011;53654;54.152;19.432;2022-08-01T10:31:55;1.70;;;1.30;;
66741;SDS011;53654;54.152;19.432;2022-08-01T10:34:27;1.60;;;1.30;;
66741;SDS011;53654;54.152;19.432;2022-08-01T10:36:57;2.10;;;1.20;;
66741;SDS011;53654;54.152;19.432;2022-08-01T10:39:27;2.40;;;1.20;;
66741;SDS011;53654;54.152;19.432;2022-08-01T10:41:59;1.90;;;1.60;;
66741;SDS011;53654;54.152;19.432;2022-08-01T10:44:30;1.70;;;1.40;;
66741;SDS011;53654;54.152;19.432;2022-08-01T10:47:08;1.30;;;1.20;;
66741;SDS011;53654;54.152;19.432;2022-08-01T10:49:49;2.10;;;1.10;;
66741;SDS011;53654;54.152;19.432;2022-08-01T10:52:21;1.30;;;1.20;;
66741;SDS011;53654;54.152;19.432;2022-08-01T10:55:01;1.10;;;1.00;;
66741;SDS011;53654;54.152;19.432;2022-08-01T10:57:43;1.00;;;1.00;;
66741;SDS011;53654;54.152;19.432;2022-08-01T11:00:20;0.90;;;0.90;;
66741;SDS011;53654;54.152;19.432;2022-08-01T11:03:02;1.30;;;1.20;;
66741;SDS011;53654;54.152;19.432;2022-08-01T11:05:32;1.30;;;1.30;;
66741;SDS011;53654;54.152;19.432;2022-08-01T11:08:07;1.60;;;1.30;;
66741;SDS011;53654;54.152;19.432;2022-08-01T11:10:41;1.70;;;1.30;;
66741;SDS011;53654;54.152;19.432;2022-08-01T11:13:12;3.60;;;1.20;;
66741;SDS011;53654;54.152;19.432;2022-08-01T11:15:41;1.60;;;1.50;;
66741;SDS011;53654;54.152;19.432;2022-08-01T11:20:58;2.20;;;1.20;;
66741;SDS011;53654;54.152;19.432;2022-08-01T11:23:49;3.40;;;1.30;;
66741;SDS011;53654;54.152;19.432;2022-08-01T11:26:19;1.90;;;1.10;;
66741;SDS011;53654;54.152;19.432;2022-08-01T11:29:15;1.00;;;0.90;;
66741;SDS011;53654;54.152;19.432;2022-08-01T11:31:47;2.10;;;0.90;;
66741;SDS011;53654;54.152;19.432;2022-08-01T11:34:16;1.30;;;1.10;;
66741;SDS011;53654;54.152;19.432;2022-08-01T11:36:46;2.60;;;0.90;;
66741;SDS011;53654;54.152;19.432;2022-08-01T11:39:29;2.20;;;1.20;;
66741;SDS011;53654;54.152;19.432;2022-08-01T11:42:17;1.80;;;1.20;;
66741;SDS011;53654;54.152;19.432;2022-08-01T11:44:50;1.20;;;0.80;;
66741;SDS011;53654;54.152;19.432;2022-08-01T11:47:32;1.60;;;0.80;;
66741;SDS011;53654;54.152;19.432;2022-08-01T11:53:02;1.30;;;1.20;;
66741;SDS011;53654;54.152;19.432;2022-08-01T11:55:32;1.70;;;1.10;;
66741;SDS011;53654;54.152;19.432;2022-08-01T11:58:06;1.50;;;0.80;;
66741;SDS011;53654;54.152;19.432;2022-08-01T12:00:52;1.60;;;1.30;;
66741;SDS011;53654;54.152;19.432;2022-08-01T12:03:25;1.20;;;1.00;;
66741;SDS011;53654;54.152;19.432;2022-08-01T12:06:01;2.50;;;0.90;;
66741;SDS011;53654;54.152;19.432;2022-08-01T12:08:32;1.80;;;1.10;;
66741;SDS011;53654;54.152;19.432;2022-08-01T12:11:05;2.40;;;1.10;;
66741;SDS011;53654;54.152;19.432;2022-08-01T12:13:40;1.30;;;1.00;;
66741;SDS011;53654;54.152;19.432;2022-08-01T12:16:10;2.60;;;0.90;;
66741;SDS011;53654;54.152;19.432;2022-08-01T12:18:42;2.00;;;1.30;;
66741;SDS011;53654;54.152;19.432;2022-08-01T12:21:10;2.20;;;1.40;;
66741;SDS011;53654;54.152;19.432;2022-08-01T12:23:39;1.80;;;1.00;;
66741;SDS011;53654;54.152;19.432;2022-08-01T12:26:07;1.80;;;1.00;;
66741;SDS011;53654;54.152;19.432;2022-08-01T12:28:55;2.10;;;1.00;;
66741;SDS011;53654;54.152;19.432;2022-08-01T12:31:30;0.90;;;0.80;;
66741;SDS011;53654;54.152;19.432;2022-08-01T12:34:24;1.40;;;0.80;;
66741;SDS011;53654;54.152;19.432;2022-08-01T12:36:58;1.40;;;1.20;;
66741;SDS011;53654;54.152;19.432;2022-08-01T12:39:31;1.00;;;1.00;;
66741;SDS011;53654;54.152;19.432;2022-08-01T12:42:01;1.50;;;1.10;;
66741;SDS011;53654;54.152;19.432;2022-08-01T12:44:32;1.00;;;0.80;;
66741;SDS011;53654;54.152;19.432;2022-08-01T12:47:02;5.50;;;1.40;;
66741;SDS011;53654;54.152;19.432;2022-08-01T12:49:37;1.80;;;1.00;;
66741;SDS011;53654;54.152;19.432;2022-08-01T12:52:07;1.00;;;1.00;;
66741;SDS011;53654;54.152;19.432;2022-08-01T12:57:37;1.10;;;1.00;;
66741;SDS011;53654;54.152;19.432;2022-08-01T13:02:41;1.20;;;1.00;;
66741;SDS011;53654;54.152;19.432;2022-08-01T13:05:09;3.10;;;1.20;;
66741;SDS011;53654;54.152;19.432;2022-08-01T13:10:13;2.80;;;1.30;;
66741;SDS011;53654;54.152;19.432;2022-08-01T13:12:50;2.90;;;1.10;;
66741;SDS011;53654;54.152;19.432;2022-08-01T13:15:21;1.30;;;1.20;;
66741;SDS011;53654;54.152;19.432;2022-08-01T13:17:50;1.80;;;1.20;;
66741;SDS011;53654;54.152;19.432;2022-08-01T13:20:34;1.20;;;1.10;;
66741;SDS011;53654;54.152;19.432;2022-08-01T13:23:09;1.30;;;1.20;;
66741;SDS011;53654;54.152;19.432;2022-08-01T13:26:08;1.10;;;1.00;;
66741;SDS011;53654;54.152;19.432;2022-08-01T13:28:36;3.00;;;1.20;;
66741;SDS011;53654;54.152;19.432;2022-08-01T13:31:06;1.50;;;1.20;;
66741;SDS011;53654;54.152;19.432;2022-08-01T13:33:47;2.40;;;1.10;;
66741;SDS011;53654;54.152;19.432;2022-08-01T13:36:26;1.00;;;1.00;;
66741;SDS011;53654;54.152;19.432;2022-08-01T13:38:58;2.00;;;1.30;;
66741;SDS011;53654;54.152;19.432;2022-08-01T13:41:46;1.40;;;1.30;;
66741;SDS011;53654;54.152;19.432;2022-08-01T13:44:15;1.20;;;1.10;;
66741;SDS011;53654;54.152;19.432;2022-08-01T13:46:43;1.50;;;1.20;;
66741;SDS011;53654;54.152;19.432;2022-08-01T13:49:18;1.30;;;1.00;;
66741;SDS011;53654;54.152;19.432;2022-08-01T13:51:46;2.70;;;1.40;;
66741;SDS011;53654;54.152;19.432;2022-08-01T13:54:17;1.40;;;1.30;;
66741;SDS011;53654;54.152;19.432;2022-08-01T13:56:46;3.70;;;1.50;;
66741;SDS011;53654;54.152;19.432;2022-08-01T13:59:14;1.50;;;1.40;;
66741;SDS011;53654;54.152;19.432;2022-08-01T14:01:42;1.60;;;1.10;;
66741;SDS011;53654;54.152;19.432;2022-08-01T14:04:10;1.60;;;1.30;;
66741;SDS011;53654;54.152;19.432;2022-08-01T14:06:38;3.70;;;1.10;;
66741;SDS011;53654;54.152;19.432;2022-08-01T14:09:08;1.30;;;1.20;;
66741;SDS011;53654;54.152;19.432;2022-08-01T14:11:44;2.20;;;1.20;;
66741;SDS011;53654;54.152;19.432;2022-08-01T14:14:12;2.10;;;1.20;;
66741;SDS011;53654;54.152;19.432;2022-08-01T14:16:41;1.30;;;1.10;;
66741;SDS011;53654;54.152;19.432;2022-08-01T14:19:12;1.90;;;1.20;;
66741;SDS011;53654;54.152;19.432;2022-08-01T14:21:40;1.40;;;1.30;;
66741;SDS011;53654;54.152;19.432;2022-08-01T14:24:08;3.60;;;1.50;;
66741;SDS011;53654;54.152;19.432;2022-08-01T14:26:37;3.00;;;1.30;;
66741;SDS011;53654;54.152;19.432;2022-08-01T14:29:05;2.50;;;1.30;;
66741;SDS011;53654;54.152;19.432;2022-08-01T14:31:33;1.10;;;1.10;;
66741;SDS011;53654;54.152;19.432;2022-08-01T14:34:02;1.90;;;1.00;;
66741;SDS011;53654;54.152;19.432;2022-08-01T14:36:30;1.80;;;1.30;;
66741;SDS011;53654;54.152;19.432;2022-08-01T14:39:04;2.40;;;1.50;;
66741;SDS011;53654;54.152;19.432;2022-08-01T14:41:33;1.40;;;1.20;;
66741;SDS011;53654;54.152;19.432;2022-08-01T14:44:01;2.10;;;1.20;;
66741;SDS011;53654;54.152;19.432;2022-08-01T14:46:30;1.50;;;1.20;;
66741;SDS011;53654;54.152;19.432;2022-08-01T14:49:00;2.30;;;0.90;;
66741;SDS011;53654;54.152;19.432;2022-08-01T14:51:28;3.10;;;1.00;;
66741;SDS011;53654;54.152;19.432;2022-08-01T14:54:00;2.40;;;1.20;;
66741;SDS011;53654;54.152;19.432;2022-08-01T14:56:30;3.10;;;1.40;;
66741;SDS011;53654;54.152;19.432;2022-08-01T14:58:58;1.40;;;1.20;;
66741;SDS011;53654;54.152;19.432;2022-08-01T15:01:27;1.40;;;1.20;;
66741;SDS011;53654;54.152;19.432;2022-08-01T15:03:55;1.20;;;1.10;;
66741;SDS011;53654;54.152;19.432;2022-08-01T15:06:23;1.40;;;1.30;;
66741;SDS011;53654;54.152;19.432;2022-08-01T15:08:58;1.50;;;1.10;;
66741;SDS011;53654;54.152;19.432;2022-08-01T15:11:26;3.00;;;1.20;;
66741;SDS011;53654;54.152;19.432;2022-08-01T15:14:01;4.90;;;1.30;;
66741;SDS011;53654;54.152;19.432;2022-08-01T15:16:47;1.30;;;1.20;;
66741;SDS011;53654;54.152;19.432;2022-08-01T15:19:15;1.90;;;1.40;;
66741;SDS011;53654;54.152;19.432;2022-08-01T15:21:44;2.30;;;1.10;;
66741;SDS011;53654;54.152;19.432;2022-08-01T15:24:12;2.80;;;1.40;;
66741;SDS011;53654;54.152;19.432;2022-08-01T15:26:40;1.50;;;1.20;;
66741;SDS011;53654;54.152;19.432;2022-08-01T15:29:08;1.50;;;1.40;;
66741;SDS011;53654;54.152;19.432;2022-08-01T15:31:37;2.00;;;1.10;;
66741;SDS011;53654;54.152;19.432;2022-08-01T15:34:05;1.80;;;1.20;;